Marlow, Oklahoma
Current Conditions -  °F | °C
As of 4:15 AM on Sunday 23 Nov 2014 (Local Time) from KDUC Reporting Station
Haze Haze  
Wind Chill: 11°   Ceiling: 200
Heat Index: 11°   Visibility: 1mi
Dew Point: 11°   Wind: 10mph
Humidity: 100%   Direction: 160°SSE
Pressure: 29.57"   Gusts: NA
Location:  34.65°N, 97.96°W
Report Text: KDUC 231015Z AUTO 16009KT 1SM BR OVC002 11/11 A2957 RMK AO2
Loading
Personal Weather Stations






























Interactive Weather Map New forecast layout! Learn more

10-Day Weather Forecast

Advertisements
Track Severe Weather on mobile